Murphy Dome Roam - 5/10/2015 
         
  Temp in the 40-50's. Sunny after a rainy previous night. 
  11 miles. Hilly course on mostly unpaved back roads on Murphy Dome. 
   
  Course Records: Winner Rick Lader missed setting a new course record by mere seconds. 
  The men's record of 1:05:13 was set in 2006 by Matias Saari and Mike Kramer. 
  The women's record of 1:16:14 was set by Jane LeBlond in 2010. 
         
  MEN     WOMEN  
  Name Age Time   Name Age Time
 1 Rick Lader 29 1:05:16  1 Erika Burr 29 1:22:12
 2 Sancho Ponza 35 1:16:34  2 Christie Haupert 38 1:26:29
 3 Mike Kramer 46 1:18:01  3 Elizaveta Ershova 27 1:28:28
 4 Gary Holton 50 1:18:33  4 Madi McConnell 26 1:29:05
 5 Nicholas Shamrell 29 1:19:22  5 Angela DiBerardino 38 1:30:44
 6 Dan Bishop 53 1:21:57  6 Nikki Potter 32 1:31:16
 7 Christian Blankenship 37 1:25:28  7 Dorli McWayne 62 1:35:22
 8 Bruce Sackinger 44 1:26:27  8 Anna Merrill 41 1:39:17
 9 Randy Peterson 29 1:29:27  9 Brittany Jackson 29 1:39:26
 10 Stewart Joseph 53 1:29:59  10 Kaya Ratzlaff 12 1:40:11
 11 Miker Frantes 31 1:39:27  11 Susan Kramer 45 1:42:19
 12 Jonathan Gloria 28 1:40:39  12 Kendall Kramer 12 1:42:20
 13 Jeremy Johnson 37 1:41:00  13 Cathi Batchelder 43 1:44:49
 14 Trent Hubbard 43 1:43:11  14 Stephanie King 58 1:47:31
 15 Kes Woodward 63 1:48:19  15 Amy Noon 51 1:49:18
 16 Gary Pohl 64 1:49:43  16 Ida Petersen 27 1:49:58
 17 Ross Dorendorf 27 2:07:39  17 Robbin Garber-Slaght 40 1:51:39
 18 Paul Reynolds 56 3:09:25  18 Kim Troxel 51 1:53:40
 19 Bob Hildebrandt 66 6:12:30  19 Sandra Kimbrell 52 1:54:33
      20 Oralee Nudson 35 1:58:09
      21 Mykaela Stuart 28 1:58:17
      22 Kim Blood 40 2:09:13
      23 Ari Smith 26 2:11:32
      24 Deb DeWitt 43 2:12:00
      25 Jeni Macomber 40 2:19:41
      26 Ashley Munro 32 2:19:48
      27 Nina Ruckhaus 21 2:35:25